sensor_id;sensor_type;location;lat;lon;timestamp;pressure;altitude;pressure_sealevel;temperature;humidity
63204;BME280;49297;43.210;27.914;2022-08-21T00:01:51;100466.06;;;25.03;73.45
63204;BME280;49297;43.210;27.914;2022-08-21T00:04:17;100461.34;;;24.98;73.20
63204;BME280;49297;43.210;27.914;2022-08-21T00:09:24;100465.25;;;24.91;73.48
63204;BME280;49297;43.210;27.914;2022-08-21T00:11:50;100457.38;;;24.89;73.25
63204;BME280;49297;43.210;27.914;2022-08-21T00:14:16;100458.66;;;24.86;73.30
63204;BME280;49297;43.210;27.914;2022-08-21T00:16:42;100461.63;;;24.85;73.22
63204;BME280;49297;43.210;27.914;2022-08-21T00:19:08;100459.16;;;24.83;73.31
63204;BME280;49297;43.210;27.914;2022-08-21T00:21:35;100448.81;;;24.80;73.28
63204;BME280;49297;43.210;27.914;2022-08-21T00:24:01;100451.97;;;24.77;73.11
63204;BME280;49297;43.210;27.914;2022-08-21T00:26:26;100448.44;;;24.77;73.40
63204;BME280;49297;43.210;27.914;2022-08-21T00:31:19;100439.75;;;24.75;73.22
63204;BME280;49297;43.210;27.914;2022-08-21T00:36:35;100429.97;;;24.74;73.37
63204;BME280;49297;43.210;27.914;2022-08-21T00:39:02;100435.38;;;24.74;73.38
63204;BME280;49297;43.210;27.914;2022-08-21T00:41:28;100434.56;;;24.73;73.24
63204;BME280;49297;43.210;27.914;2022-08-21T00:43:55;100431.88;;;24.73;73.27
63204;BME280;49297;43.210;27.914;2022-08-21T00:46:21;100431.06;;;24.73;73.29
63204;BME280;49297;43.210;27.914;2022-08-21T00:48:47;100423.75;;;24.73;73.33
63204;BME280;49297;43.210;27.914;2022-08-21T00:51:38;100425.03;;;24.70;73.22
63204;BME280;49297;43.210;27.914;2022-08-21T00:54:06;100429.63;;;24.70;73.52
63204;BME280;49297;43.210;27.914;2022-08-21T00:59:11;100428.81;;;24.69;73.58
63204;BME280;49297;43.210;27.914;2022-08-21T01:01:38;100430.72;;;24.69;73.71
63204;BME280;49297;43.210;27.914;2022-08-21T01:04:04;100436.47;;;24.73;73.73
63204;BME280;49297;43.210;27.914;2022-08-21T01:06:30;100435.63;;;24.72;73.63
63204;BME280;49297;43.210;27.914;2022-08-21T01:08:56;100433.75;;;24.73;73.72
63204;BME280;49297;43.210;27.914;2022-08-21T01:11:21;100431.88;;;24.73;73.55
63204;BME280;49297;43.210;27.914;2022-08-21T01:13:47;100431.28;;;24.71;73.15
63204;BME280;49297;43.210;27.914;2022-08-21T01:16:17;100438.81;;;24.69;73.60
63204;BME280;49297;43.210;27.914;2022-08-21T01:18:44;100440.09;;;24.66;73.60
63204;BME280;49297;43.210;27.914;2022-08-21T01:21:14;100439.53;;;24.64;73.51
63204;BME280;49297;43.210;27.914;2022-08-21T01:23:43;100437.88;;;24.63;73.52
63204;BME280;49297;43.210;27.914;2022-08-21T01:26:10;100428.13;;;24.62;73.53
63204;BME280;49297;43.210;27.914;2022-08-21T01:28:40;100439.41;;;24.59;73.90
63204;BME280;49297;43.210;27.914;2022-08-21T01:31:09;100437.16;;;24.56;73.85
63204;BME280;49297;43.210;27.914;2022-08-21T01:33:37;100439.50;;;24.52;73.45
63204;BME280;49297;43.210;27.914;2022-08-21T01:36:03;100444.56;;;24.49;73.74
63204;BME280;49297;43.210;27.914;2022-08-21T01:38:29;100444.81;;;24.47;74.01
63204;BME280;49297;43.210;27.914;2022-08-21T01:40:55;100444.22;;;24.45;73.81
63204;BME280;49297;43.210;27.914;2022-08-21T01:43:21;100439.06;;;24.44;74.03
63204;BME280;49297;43.210;27.914;2022-08-21T01:45:47;100434.94;;;24.41;74.05
63204;BME280;49297;43.210;27.914;2022-08-21T01:48:13;100432.91;;;24.37;74.19
63204;BME280;49297;43.210;27.914;2022-08-21T01:50:38;100434.81;;;24.36;74.25
63204;BME280;49297;43.210;27.914;2022-08-21T01:55:53;100416.59;;;24.31;74.15
63204;BME280;49297;43.210;27.914;2022-08-21T01:58:19;100417.06;;;24.28;74.28
63204;BME280;49297;43.210;27.914;2022-08-21T02:00:45;100414.59;;;24.27;74.30
63204;BME280;49297;43.210;27.914;2022-08-21T02:03:11;100416.47;;;24.26;74.52
63204;BME280;49297;43.210;27.914;2022-08-21T02:05:36;100417.53;;;24.25;74.46
63204;BME280;49297;43.210;27.914;2022-08-21T02:08:02;100413.19;;;24.24;74.51
63204;BME280;49297;43.210;27.914;2022-08-21T02:10:31;100409.88;;;24.22;74.70
63204;BME280;49297;43.210;27.914;2022-08-21T02:12:58;100401.75;;;24.22;74.44
63204;BME280;49297;43.210;27.914;2022-08-21T02:15:27;100412.84;;;24.21;74.32
63204;BME280;49297;43.210;27.914;2022-08-21T02:20:45;100415.19;;;24.17;74.15
63204;BME280;49297;43.210;27.914;2022-08-21T02:23:21;100416.69;;;24.13;74.13
63204;BME280;49297;43.210;27.914;2022-08-21T02:28:38;100422.22;;;24.06;74.39
63204;BME280;49297;43.210;27.914;2022-08-21T02:31:05;100424.34;;;24.04;74.33
63204;BME280;49297;43.210;27.914;2022-08-21T02:36:23;100432.94;;;24.01;74.94
63204;BME280;49297;43.210;27.914;2022-08-21T02:38:49;100432.09;;;24.01;74.86
63204;BME280;49297;43.210;27.914;2022-08-21T02:41:18;100437.72;;;23.99;75.05
63204;BME280;49297;43.210;27.914;2022-08-21T02:43:44;100429.03;;;23.97;75.27
63204;BME280;49297;43.210;27.914;2022-08-21T02:46:12;100438.44;;;23.94;75.08
63204;BME280;49297;43.210;27.914;2022-08-21T02:48:39;100438.06;;;23.91;75.37
63204;BME280;49297;43.210;27.914;2022-08-21T02:51:08;100435.59;;;23.89;75.36
63204;BME280;49297;43.210;27.914;2022-08-21T02:53:35;100438.06;;;23.91;75.49
63204;BME280;49297;43.210;27.914;2022-08-21T02:56:04;100432.66;;;23.91;75.48
63204;BME280;49297;43.210;27.914;2022-08-21T02:58:38;100432.66;;;23.91;75.23
63204;BME280;49297;43.210;27.914;2022-08-21T03:01:05;100433.25;;;23.93;75.43
63204;BME280;49297;43.210;27.914;2022-08-21T03:08:56;100431.13;;;23.95;75.26
63204;BME280;49297;43.210;27.914;2022-08-21T03:11:23;100431.38;;;23.93;75.31
63204;BME280;49297;43.210;27.914;2022-08-21T03:13:48;100427.84;;;23.93;75.46
63204;BME280;49297;43.210;27.914;2022-08-21T03:16:14;100435.16;;;23.92;75.48
63204;BME280;49297;43.210;27.914;2022-08-21T03:21:21;100433.25;;;23.93;75.29
63204;BME280;49297;43.210;27.914;2022-08-21T03:23:47;100427.25;;;23.91;75.41
63204;BME280;49297;43.210;27.914;2022-08-21T03:26:13;100437.25;;;23.90;75.42
63204;BME280;49297;43.210;27.914;2022-08-21T03:28:39;100434.56;;;23.90;75.41
63204;BME280;49297;43.210;27.914;2022-08-21T03:31:04;100439.72;;;23.92;75.48
63204;BME280;49297;43.210;27.914;2022-08-21T03:33:31;100442.41;;;23.92;75.30
63204;BME280;49297;43.210;27.914;2022-08-21T03:38:39;100432.44;;;23.92;75.33
63204;BME280;49297;43.210;27.914;2022-08-21T03:41:06;100445.72;;;23.94;75.13
63204;BME280;49297;43.210;27.914;2022-08-21T03:43:32;100446.53;;;23.94;74.95
63204;BME280;49297;43.210;27.914;2022-08-21T03:46:00;100450.06;;;23.95;75.09
63204;BME280;49297;43.210;27.914;2022-08-21T03:48:27;100449.25;;;23.94;75.11
63204;BME280;49297;43.210;27.914;2022-08-21T03:50:53;100453.84;;;23.94;74.96
63204;BME280;49297;43.210;27.914;2022-08-21T03:53:19;100442.78;;;23.95;75.00
63204;BME280;49297;43.210;27.914;2022-08-21T03:55:47;100444.66;;;23.95;75.18
63204;BME280;49297;43.210;27.914;2022-08-21T03:58:16;100451.13;;;23.94;74.86
63204;BME280;49297;43.210;27.914;2022-08-21T04:00:42;100459.00;;;23.95;74.70
63204;BME280;49297;43.210;27.914;2022-08-21T04:03:08;100451.72;;;23.96;74.61
63204;BME280;49297;43.210;27.914;2022-08-21T04:05:34;100452.31;;;23.98;74.59
63204;BME280;49297;43.210;27.914;2022-08-21T04:08:03;100451.72;;;23.96;74.45
63204;BME280;49297;43.210;27.914;2022-08-21T04:10:34;100455.84;;;23.99;74.14
63204;BME280;49297;43.210;27.914;2022-08-21T04:13:00;100459.97;;;24.01;74.11
63204;BME280;49297;43.210;27.914;2022-08-21T04:15:26;100460.31;;;24.05;74.27
63204;BME280;49297;43.210;27.914;2022-08-21T04:17:52;100459.84;;;24.08;74.34
63204;BME280;49297;43.210;27.914;2022-08-21T04:20:20;100464.78;;;24.11;74.18
63204;BME280;49297;43.210;27.914;2022-08-21T04:22:47;100458.09;;;24.13;74.12
63204;BME280;49297;43.210;27.914;2022-08-21T04:25:15;100454.91;;;24.17;74.02
63204;BME280;49297;43.210;27.914;2022-08-21T04:27:41;100448.47;;;24.18;73.72
63204;BME280;49297;43.210;27.914;2022-08-21T04:30:08;100448.00;;;24.21;73.89
63204;BME280;49297;43.210;27.914;2022-08-21T04:32:36;100446.22;;;24.26;73.71
63204;BME280;49297;43.210;27.914;2022-08-21T04:35:05;100446.34;;;24.31;73.33
63204;BME280;49297;43.210;27.914;2022-08-21T04:37:31;100449.63;;;24.33;73.63
63204;BME280;49297;43.210;27.914;2022-08-21T04:39:57;100453.03;;;24.41;73.13
63204;BME280;49297;43.210;27.914;2022-08-21T04:42:27;100453.16;;;24.46;72.92
63204;BME280;49297;43.210;27.914;2022-08-21T04:44:54;100455.53;;;24.54;73.00
63204;BME280;49297;43.210;27.914;2022-08-21T04:47:20;100449.78;;;24.62;72.68
63204;BME280;49297;43.210;27.914;2022-08-21T04:49:47;100454.81;;;24.70;72.53
63204;BME280;49297;43.210;27.914;2022-08-21T04:52:16;100450.94;;;24.78;72.24
63204;BME280;49297;43.210;27.914;2022-08-21T04:54:44;100446.19;;;24.85;71.86
63204;BME280;49297;43.210;27.914;2022-08-21T04:57:11;100446.88;;;24.93;71.96
63204;BME280;49297;43.210;27.914;2022-08-21T04:59:46;100434.28;;;24.98;71.62
63204;BME280;49297;43.210;27.914;2022-08-21T05:02:13;100443.91;;;25.06;71.45
63204;BME280;49297;43.210;27.914;2022-08-21T05:04:44;100431.88;;;25.14;71.01
63204;BME280;49297;43.210;27.914;2022-08-21T05:07:15;100435.28;;;25.21;70.70
63204;BME280;49297;43.210;27.914;2022-08-21T05:09:42;100434.09;;;25.29;70.62
63204;BME280;49297;43.210;27.914;2022-08-21T05:12:09;100435.34;;;25.38;70.39
63204;BME280;49297;43.210;27.914;2022-08-21T05:17:31;100428.53;;;25.52;69.69
63204;BME280;49297;43.210;27.914;2022-08-21T05:19:56;100418.88;;;25.56;69.43
63204;BME280;49297;43.210;27.914;2022-08-21T05:22:22;100420.84;;;25.61;69.40
63204;BME280;49297;43.210;27.914;2022-08-21T05:24:50;100422.09;;;25.70;68.78
63204;BME280;49297;43.210;27.914;2022-08-21T05:27:16;100421.69;;;25.78;68.64
63204;BME280;49297;43.210;27.914;2022-08-21T05:32:24;100420.53;;;25.91;68.41
63204;BME280;49297;43.210;27.914;2022-08-21T05:34:50;100419.28;;;25.94;68.63
63204;BME280;49297;43.210;27.914;2022-08-21T05:37:16;100424.19;;;25.97;68.63
63204;BME280;49297;43.210;27.914;2022-08-21T05:39:42;100412.34;;;26.03;68.23
63204;BME280;49297;43.210;27.914;2022-08-21T05:44:42;100417.88;;;26.08;68.37
63204;BME280;49297;43.210;27.914;2022-08-21T05:47:09;100412.75;;;26.12;68.46
63204;BME280;49297;43.210;27.914;2022-08-21T05:52:19;100415.03;;;26.20;68.09
63204;BME280;49297;43.210;27.914;2022-08-21T05:57:27;100419.81;;;26.30;67.87
63204;BME280;49297;43.210;27.914;2022-08-21T05:59:52;100411.75;;;26.35;67.57
63204;BME280;49297;43.210;27.914;2022-08-21T06:02:20;100413.44;;;26.41;67.44
63204;BME280;49297;43.210;27.914;2022-08-21T06:04:47;100412.72;;;26.46;67.05
63204;BME280;49297;43.210;27.914;2022-08-21T06:07:13;100410.06;;;26.51;67.31
63204;BME280;49297;43.210;27.914;2022-08-21T06:09:40;100418.53;;;26.54;66.93
63204;BME280;49297;43.210;27.914;2022-08-21T06:12:10;100411.50;;;26.58;66.64
63204;BME280;49297;43.210;27.914;2022-08-21T06:17:13;100418.41;;;26.66;66.94
63204;BME280;49297;43.210;27.914;2022-08-21T06:19:40;100420.41;;;26.71;66.93
63204;BME280;49297;43.210;27.914;2022-08-21T06:22:06;100424.00;;;26.76;66.95
63204;BME280;49297;43.210;27.914;2022-08-21T06:24:32;100421.09;;;26.83;66.44
63204;BME280;49297;43.210;27.914;2022-08-21T06:27:04;100414.63;;;26.89;66.43
63204;BME280;49297;43.210;27.914;2022-08-21T06:29:31;100414.44;;;26.96;66.13
63204;BME280;49297;43.210;27.914;2022-08-21T06:31:57;100414.44;;;26.96;65.21
63204;BME280;49297;43.210;27.914;2022-08-21T06:34:23;100410.66;;;26.97;65.13
63204;BME280;49297;43.210;27.914;2022-08-21T06:36:49;100413.94;;;26.99;65.36
63204;BME280;49297;43.210;27.914;2022-08-21T06:39:15;100415.31;;;27.02;65.10
63204;BME280;49297;43.210;27.914;2022-08-21T06:41:40;100420.00;;;27.06;65.20
63204;BME280;49297;43.210;27.914;2022-08-21T06:44:06;100418.97;;;27.12;64.79
63204;BME280;49297;43.210;27.914;2022-08-21T06:46:32;100424.47;;;27.17;64.41
63204;BME280;49297;43.210;27.914;2022-08-21T06:51:39;100428.84;;;27.19;63.67
63204;BME280;49297;43.210;27.914;2022-08-21T06:54:05;100436.22;;;27.23;63.80
63204;BME280;49297;43.210;27.914;2022-08-21T06:56:31;100430.63;;;27.30;63.78
63204;BME280;49297;43.210;27.914;2022-08-21T07:01:40;100435.53;;;27.33;63.42
63204;BME280;49297;43.210;27.914;2022-08-21T07:04:06;100434.66;;;27.27;63.68
63204;BME280;49297;43.210;27.914;2022-08-21T07:06:33;100431.66;;;27.29;63.94
63204;BME280;49297;43.210;27.914;2022-08-21T07:08:58;100426.28;;;27.34;64.11
63204;BME280;49297;43.210;27.914;2022-08-21T07:11:24;100425.22;;;27.35;63.90
63204;BME280;49297;43.210;27.914;2022-08-21T07:16:39;100429.31;;;27.38;64.14
63204;BME280;49297;43.210;27.914;2022-08-21T07:19:05;100423.38;;;27.41;63.75
63204;BME280;49297;43.210;27.914;2022-08-21T07:21:30;100423.13;;;27.42;63.66
63204;BME280;49297;43.210;27.914;2022-08-21T07:23:56;100420.72;;;27.46;63.47
63204;BME280;49297;43.210;27.914;2022-08-21T07:26:23;100417.50;;;27.49;63.42
63204;BME280;49297;43.210;27.914;2022-08-21T07:28:50;100418.59;;;27.53;63.13
63204;BME280;49297;43.210;27.914;2022-08-21T07:31:19;100416.19;;;27.57;63.08
63204;BME280;49297;43.210;27.914;2022-08-21T07:33:45;100411.31;;;27.59;63.22
63204;BME280;49297;43.210;27.914;2022-08-21T07:36:11;100416.25;;;27.62;62.55
63204;BME280;49297;43.210;27.914;2022-08-21T07:38:37;100407.28;;;27.61;61.75
63204;BME280;49297;43.210;27.914;2022-08-21T07:41:08;100411.13;;;27.65;61.71
63204;BME280;49297;43.210;27.914;2022-08-21T07:43:37;100413.88;;;27.70;61.53
63204;BME280;49297;43.210;27.914;2022-08-21T07:46:03;100412.00;;;27.76;61.44
63204;BME280;49297;43.210;27.914;2022-08-21T07:48:28;100413.13;;;27.80;61.07
63204;BME280;49297;43.210;27.914;2022-08-21T07:53:51;100409.63;;;27.85;60.57
63204;BME280;49297;43.210;27.914;2022-08-21T07:58:59;100400.47;;;27.91;61.20
63204;BME280;49297;43.210;27.914;2022-08-21T08:01:28;100403.47;;;27.95;60.60
63204;BME280;49297;43.210;27.914;2022-08-21T08:03:54;100396.16;;;28.00;59.82
63204;BME280;49297;43.210;27.914;2022-08-21T08:06:20;100400.31;;;28.08;59.01
63204;BME280;49297;43.210;27.914;2022-08-21T08:08:46;100405.50;;;28.15;58.06
63204;BME280;49297;43.210;27.914;2022-08-21T08:11:13;100405.28;;;28.21;57.54
63204;BME280;49297;43.210;27.914;2022-08-21T08:13:47;100402.34;;;28.28;57.02
63204;BME280;49297;43.210;27.914;2022-08-21T08:18:54;100397.22;;;28.37;56.41
63204;BME280;49297;43.210;27.914;2022-08-21T08:21:21;100395.59;;;28.41;55.88
63204;BME280;49297;43.210;27.914;2022-08-21T08:23:47;100386.09;;;28.43;55.85
63204;BME280;49297;43.210;27.914;2022-08-21T08:26:13;100393.72;;;28.46;56.50
63204;BME280;49297;43.210;27.914;2022-08-21T08:28:41;100391.25;;;28.45;56.01
63204;BME280;49297;43.210;27.914;2022-08-21T08:33:54;100386.16;;;28.54;55.40
63204;BME280;49297;43.210;27.914;2022-08-21T08:36:33;100390.03;;;28.58;56.14
63204;BME280;49297;43.210;27.914;2022-08-21T08:39:00;100390.56;;;28.60;56.18
63204;BME280;49297;43.210;27.914;2022-08-21T08:41:26;100387.59;;;28.61;56.89
63204;BME280;49297;43.210;27.914;2022-08-21T08:43:54;100388.69;;;28.65;57.59
63204;BME280;49297;43.210;27.914;2022-08-21T08:46:30;100390.88;;;28.69;58.12
63204;BME280;49297;43.210;27.914;2022-08-21T08:49:16;100391.72;;;28.74;58.21
63204;BME280;49297;43.210;27.914;2022-08-21T08:51:51;100386.56;;;28.78;57.96
63204;BME280;49297;43.210;27.914;2022-08-21T08:54:34;100386.56;;;28.78;58.07
63204;BME280;49297;43.210;27.914;2022-08-21T08:57:10;100384.38;;;28.80;58.50
63204;BME280;49297;43.210;27.914;2022-08-21T08:59:42;100382.47;;;28.80;58.51
63204;BME280;49297;43.210;27.914;2022-08-21T09:02:11;100379.44;;;28.77;58.53
63204;BME280;49297;43.210;27.914;2022-08-21T09:04:38;100378.94;;;28.80;58.47
63204;BME280;49297;43.210;27.914;2022-08-21T09:18:27;100369.41;;;28.82;57.97
63204;BME280;49297;43.210;27.914;2022-08-21T09:21:21;100354.44;;;28.85;56.88
63204;BME280;49297;43.210;27.914;2022-08-21T09:23:55;100358.81;;;28.86;56.41
63204;BME280;49297;43.210;27.914;2022-08-21T09:26:36;100358.81;;;28.86;57.26
63204;BME280;49297;43.210;27.914;2022-08-21T09:29:06;100357.69;;;28.87;57.57
63204;BME280;49297;43.210;27.914;2022-08-21T09:31:36;100354.44;;;28.90;57.79
63204;BME280;49297;43.210;27.914;2022-08-21T09:34:07;100350.63;;;28.96;57.56
63204;BME280;49297;43.210;27.914;2022-08-21T09:36:40;100350.09;;;28.99;57.42
63204;BME280;49297;43.210;27.914;2022-08-21T09:39:08;100349.31;;;28.99;57.35
63204;BME280;49297;43.210;27.914;2022-08-21T09:41:35;100349.31;;;29.04;57.56
63204;BME280;49297;43.210;27.914;2022-08-21T09:44:04;100358.84;;;29.07;57.59
63204;BME280;49297;43.210;27.914;2022-08-21T09:46:30;100350.09;;;28.99;57.64
63204;BME280;49297;43.210;27.914;2022-08-21T09:48:59;100345.72;;;28.98;57.44
63204;BME280;49297;43.210;27.914;2022-08-21T09:51:31;100337.28;;;29.00;57.84
63204;BME280;49297;43.210;27.914;2022-08-21T09:54:18;100338.97;;;29.06;57.79
63204;BME280;49297;43.210;27.914;2022-08-21T09:56:58;100334.06;;;29.13;57.95
63204;BME280;49297;43.210;27.914;2022-08-21T09:59:44;100336.56;;;29.20;58.00
63204;BME280;49297;43.210;27.914;2022-08-21T10:02:33;100333.28;;;29.23;57.67
63204;BME280;49297;43.210;27.914;2022-08-21T10:05:07;100338.72;;;29.28;58.02
63204;BME280;49297;43.210;27.914;2022-08-21T10:07:37;100341.19;;;29.35;57.94
63204;BME280;49297;43.210;27.914;2022-08-21T10:10:13;100339.53;;;29.34;57.87
63204;BME280;49297;43.210;27.914;2022-08-21T10:16:27;100338.47;;;29.24;58.46
63204;BME280;49297;43.210;27.914;2022-08-21T10:18:40;100335.47;;;29.26;58.71
63204;BME280;49297;43.210;27.914;2022-08-21T10:24:21;100338.47;;;29.40;58.83
63204;BME280;49297;43.210;27.914;2022-08-21T10:27:12;100332.75;;;29.47;58.91
63204;BME280;49297;43.210;27.914;2022-08-21T10:30:03;100321.28;;;29.50;58.83
63204;BME280;49297;43.210;27.914;2022-08-21T10:35:25;100319.66;;;29.43;59.13
63204;BME280;49297;43.210;27.914;2022-08-21T10:38:14;100321.56;;;29.48;59.16
63204;BME280;49297;43.210;27.914;2022-08-21T10:48:53;100318.56;;;29.50;59.68
63204;BME280;49297;43.210;27.914;2022-08-21T10:51:27;100312.56;;;29.58;59.91
63204;BME280;49297;43.210;27.914;2022-08-21T10:54:11;100313.09;;;29.60;59.89
63204;BME280;49297;43.210;27.914;2022-08-21T10:56:41;100309.25;;;29.71;59.46
63204;BME280;49297;43.210;27.914;2022-08-21T11:02:00;100309.53;;;29.90;59.38
63204;BME280;49297;43.210;27.914;2022-08-21T11:04:48;100306.81;;;29.95;58.41
63204;BME280;49297;43.210;27.914;2022-08-21T11:08:17;100316.03;;;30.05;58.40
63204;BME280;49297;43.210;27.914;2022-08-21T11:10:44;100316.56;;;30.17;57.44
63204;BME280;49297;43.210;27.914;2022-08-21T11:13:19;100311.06;;;30.32;56.47
63204;BME280;49297;43.210;27.914;2022-08-21T11:15:56;100304.72;;;30.47;55.48
63204;BME280;49297;43.210;27.914;2022-08-21T11:18:27;100307.66;;;30.66;55.66
63204;BME280;49297;43.210;27.914;2022-08-21T11:25:03;100307.25;;;31.28;54.42
63204;BME280;49297;43.210;27.914;2022-08-21T11:27:05;100305.63;;;31.61;53.41
63204;BME280;49297;43.210;27.914;2022-08-21T11:32:48;100305.97;;;32.75;51.25
63204;BME280;49297;43.210;27.914;2022-08-21T11:35:45;100300.16;;;33.34;50.11
63204;BME280;49297;43.210;27.914;2022-08-21T11:38:43;100296.19;;;33.87;49.06
63204;BME280;49297;43.210;27.914;2022-08-21T11:41:30;100296.06;;;34.47;48.08
63204;BME280;49297;43.210;27.914;2022-08-21T11:44:06;100300.72;;;34.97;46.42
63204;BME280;49297;43.210;27.914;2022-08-21T11:50:01;100289.75;;;35.42;45.52
63204;BME280;49297;43.210;27.914;2022-08-21T11:55:29;100278.00;;;35.82;44.74
63204;BME280;49297;43.210;27.914;2022-08-21T11:58:11;100272.47;;;35.82;44.82
63204;BME280;49297;43.210;27.914;2022-08-21T12:00:45;100278.72;;;36.05;44.51
63204;BME280;49297;43.210;27.914;2022-08-21T12:03:33;100271.75;;;36.16;43.82
63204;BME280;49297;43.210;27.914;2022-08-21T12:06:09;100273.44;;;36.26;44.22
63204;BME280;49297;43.210;27.914;2022-08-21T12:08:37;100271.84;;;36.43;43.55
63204;BME280;49297;43.210;27.914;2022-08-21T12:11:07;100262.44;;;36.61;43.66
63204;BME280;49297;43.210;27.914;2022-08-21T12:14:00;100261.84;;;36.73;42.55
63204;BME280;49297;43.210;27.914;2022-08-21T12:16:39;100259.84;;;36.56;43.14
63204;BME280;49297;43.210;27.914;2022-08-21T12:19:28;100257.09;;;36.56;42.93
63204;BME280;49297;43.210;27.914;2022-08-21T12:24:38;100241.03;;;36.32;43.47
63204;BME280;49297;43.210;27.914;2022-08-21T12:29:50;100238.94;;;36.55;42.91
63204;BME280;49297;43.210;27.914;2022-08-21T12:34:50;100237.97;;;36.77;42.53
63204;BME280;49297;43.210;27.914;2022-08-21T12:40:11;100259.66;;;36.44;42.78
63204;BME280;49297;43.210;27.914;2022-08-21T12:42:43;100253.09;;;35.96;43.37
63204;BME280;49297;43.210;27.914;2022-08-21T12:45:22;100251.94;;;35.57;44.31
63204;BME280;49297;43.210;27.914;2022-08-21T12:47:58;100244.41;;;35.40;44.47
63204;BME280;49297;43.210;27.914;2022-08-21T12:50:37;100238.31;;;35.20;44.86
63204;BME280;49297;43.210;27.914;2022-08-21T12:58:27;100253.31;;;34.55;46.00
63204;BME280;49297;43.210;27.914;2022-08-21T13:00:58;100252.78;;;34.30;46.60
63204;BME280;49297;43.210;27.914;2022-08-21T13:06:15;100240.16;;;33.74;47.56
63204;BME280;49297;43.210;27.914;2022-08-21T13:08:44;100246.44;;;33.47;48.09
63204;BME280;49297;43.210;27.914;2022-08-21T13:11:15;100251.97;;;33.14;49.24
63204;BME280;49297;43.210;27.914;2022-08-21T13:13:42;100253.00;;;32.80;49.85
63204;BME280;49297;43.210;27.914;2022-08-21T13:16:09;100248.91;;;32.39;51.17
63204;BME280;49297;43.210;27.914;2022-08-21T13:18:53;100241.19;;;31.98;51.80
63204;BME280;49297;43.210;27.914;2022-08-21T13:21:19;100234.72;;;31.65;53.03
63204;BME280;49297;43.210;27.914;2022-08-21T13:23:45;100236.03;;;31.43;53.79
63204;BME280;49297;43.210;27.914;2022-08-21T13:26:13;100227.47;;;31.21;54.65
63204;BME280;49297;43.210;27.914;2022-08-21T13:28:39;100234.72;;;31.06;54.75
63204;BME280;49297;43.210;27.914;2022-08-21T13:31:08;100235.03;;;31.00;55.20
63204;BME280;49297;43.210;27.914;2022-08-21T13:33:37;100248.75;;;30.89;55.57
63204;BME280;49297;43.210;27.914;2022-08-21T13:38:41;100241.59;;;30.59;56.32
63204;BME280;49297;43.210;27.914;2022-08-21T13:43:55;100238.97;;;30.33;56.94
63204;BME280;49297;43.210;27.914;2022-08-21T13:46:24;100242.03;;;30.22;57.13
63204;BME280;49297;43.210;27.914;2022-08-21T13:48:50;100243.69;;;30.12;58.03
63204;BME280;49297;43.210;27.914;2022-08-21T13:51:16;100240.19;;;30.07;58.40
63204;BME280;49297;43.210;27.914;2022-08-21T13:56:25;100241.84;;;29.97;59.08
63204;BME280;49297;43.210;27.914;2022-08-21T14:04:27;100242.72;;;29.72;59.56
63204;BME280;49297;43.210;27.914;2022-08-21T14:06:56;100234.00;;;29.70;59.40
63204;BME280;49297;43.210;27.914;2022-08-21T14:09:39;100232.91;;;29.71;59.73
63204;BME280;49297;43.210;27.914;2022-08-21T14:12:28;100233.75;;;29.67;59.59
63204;BME280;49297;43.210;27.914;2022-08-21T14:14:56;100235.09;;;29.59;59.99
63204;BME280;49297;43.210;27.914;2022-08-21T14:17:32;100228.03;;;29.53;60.17
63204;BME280;49297;43.210;27.914;2022-08-21T14:19:58;100223.41;;;29.53;60.43
63204;BME280;49297;43.210;27.914;2022-08-21T14:24:59;100222.59;;;29.42;60.74
63204;BME280;49297;43.210;27.914;2022-08-21T14:27:29;100217.44;;;29.36;60.67
63204;BME280;49297;43.210;27.914;2022-08-21T14:30:19;100220.44;;;29.39;60.19
63204;BME280;49297;43.210;27.914;2022-08-21T14:32:45;100223.97;;;29.40;59.99
63204;BME280;49297;43.210;27.914;2022-08-21T14:35:13;100224.25;;;29.33;60.25
63204;BME280;49297;43.210;27.914;2022-08-21T14:37:42;100231.91;;;29.26;60.64
63204;BME280;49297;43.210;27.914;2022-08-21T14:40:09;100228.38;;;29.20;60.62
63204;BME280;49297;43.210;27.914;2022-08-21T14:42:35;100225.63;;;29.15;60.52
63204;BME280;49297;43.210;27.914;2022-08-21T14:45:07;100232.16;;;29.09;61.35
63204;BME280;49297;43.210;27.914;2022-08-21T14:47:36;100238.41;;;29.10;60.88
63204;BME280;49297;43.210;27.914;2022-08-21T14:50:03;100230.78;;;29.12;61.03
63204;BME280;49297;43.210;27.914;2022-08-21T14:52:30;100223.16;;;29.14;60.92
63204;BME280;49297;43.210;27.914;2022-08-21T14:54:55;100226.69;;;29.14;61.15
63204;BME280;49297;43.210;27.914;2022-08-21T14:57:22;100231.91;;;29.16;60.98
63204;BME280;49297;43.210;27.914;2022-08-21T14:59:48;100223.41;;;29.12;61.41
63204;BME280;49297;43.210;27.914;2022-08-21T15:02:14;100222.88;;;29.05;61.44
63204;BME280;49297;43.210;27.914;2022-08-21T15:04:41;100238.41;;;29.04;61.72
63204;BME280;49297;43.210;27.914;2022-08-21T15:07:07;100238.16;;;29.06;61.98
63204;BME280;49297;43.210;27.914;2022-08-21T15:09:33;100228.06;;;29.07;61.76
63204;BME280;49297;43.210;27.914;2022-08-21T15:12:01;100237.63;;;29.09;61.63
63204;BME280;49297;43.210;27.914;2022-08-21T15:14:30;100240.03;;;29.11;61.60
63204;BME280;49297;43.210;27.914;2022-08-21T15:16:56;100244.69;;;29.05;61.84
63204;BME280;49297;43.210;27.914;2022-08-21T15:19:22;100242.22;;;28.98;61.76
63204;BME280;49297;43.210;27.914;2022-08-21T15:22:07;100244.97;;;28.93;61.72